Time;durP1;ratioP1;P1;durP2;ratioP2;P2;SDS_P1;SDS_P2;PMS_P1;PMS_P2;Temp;Humidity;BMP_temperature;BMP_pressure;BME280_temperature;BME280_humidity;BME280_pressure;Samples;Min_cycle;Max_cycle;Signal;HPM_P1;HPM_P2
2022/09/14 00:00:45;;;;;;;4.65;2.05;;;23.70;99.90;;;;;;5050820;28;20021;-71
2022/09/14 00:03:12;;;;;;;5.90;1.95;;;23.70;99.90;;;;;;5049303;28;20112;-71
2022/09/14 00:05:38;;;;;;;;;;;23.70;99.90;;;;;;5051233;28;20051;-71
2022/09/14 00:08:04;;;;;;;5.93;2.33;;;23.70;99.90;;;;;;5050515;28;19905;-72
2022/09/14 00:10:30;;;;;;;4.43;1.90;;;23.70;99.90;;;;;;5050845;28;20056;-71
2022/09/14 00:12:57;;;;;;;5.05;2.20;;;23.80;99.90;;;;;;5050812;28;20350;-71
2022/09/14 00:15:23;;;;;;;4.72;2.00;;;23.80;99.90;;;;;;5050411;28;20416;-71
2022/09/14 00:17:49;;;;;;;6.55;2.15;;;23.80;99.90;;;;;;5050840;28;20402;-72
2022/09/14 00:20:15;;;;;;;6.47;2.20;;;23.70;99.90;;;;;;5050382;28;20071;-71
2022/09/14 00:22:41;;;;;;;5.15;2.05;;;23.80;99.90;;;;;;5050356;28;20103;-71
2022/09/14 00:25:07;;;;;;;6.57;2.20;;;23.80;99.90;;;;;;5050424;28;20071;-71
2022/09/14 00:27:33;;;;;;;6.32;2.13;;;23.80;99.90;;;;;;5049021;28;20067;-71
2022/09/14 00:30:00;;;;;;;6.22;1.98;;;23.70;99.90;;;;;;5050146;28;20025;-71
2022/09/14 00:32:26;;;;;;;5.70;2.40;;;23.80;99.90;;;;;;5050617;28;20061;-71
2022/09/14 00:34:52;;;;;;;4.25;2.10;;;23.70;99.90;;;;;;5050374;28;20105;-71
2022/09/14 00:37:18;;;;;;;6.00;2.45;;;23.70;99.90;;;;;;5050584;28;20078;-71
2022/09/14 00:39:44;;;;;;;6.50;2.33;;;23.70;99.90;;;;;;5050400;28;20404;-71
2022/09/14 00:42:15;;;;;;;5.35;2.20;;;23.60;99.90;;;;;;5051534;28;20547;-71
2022/09/14 00:44:41;;;;;;;6.20;2.17;;;23.60;99.90;;;;;;5052410;28;20041;-72
2022/09/14 00:47:07;;;;;;;6.32;2.40;;;23.60;99.90;;;;;;5052404;28;20032;-71
2022/09/14 00:49:39;;;;;;;7.45;2.60;;;23.60;99.90;;;;;;5053621;28;20032;-71
2022/09/14 00:52:26;;;;;;;5.93;2.35;;;23.60;99.90;;;;;;5052204;28;20120;-71
2022/09/14 00:55:01;;;;;;;6.93;2.22;;;23.50;99.90;;;;;;5052788;28;20174;-72
2022/09/14 00:57:34;;;;;;;5.25;2.13;;;23.40;99.90;;;;;;5053382;28;20452;-71
2022/09/14 01:00:00;;;;;;;6.78;2.78;;;23.30;99.90;;;;;;5053815;28;20029;-71
2022/09/14 01:02:27;;;;;;;7.07;2.53;;;23.40;99.90;;;;;;5053841;28;20433;-70
2022/09/14 01:04:53;;;;;;;;;;;23.30;99.90;;;;;;5053740;28;20041;-70
2022/09/14 01:07:42;;;;;;;5.85;2.15;;;23.30;99.90;;;;;;5053799;28;19927;-70
2022/09/14 01:10:19;;;;;;;5.32;2.30;;;23.30;99.90;;;;;;5053460;28;20025;-70
2022/09/14 01:13:08;;;;;;;8.18;2.60;;;23.30;99.90;;;;;;5053300;28;20021;-70
2022/09/14 01:16:02;;;;;;;7.38;2.72;;;23.30;99.90;;;;;;5053257;28;20444;-71
2022/09/14 01:18:59;;;;;;;6.97;2.60;;;23.20;99.90;;;;;;5053226;28;20021;-70
2022/09/14 01:21:31;;;;;;;6.35;2.03;;;23.20;99.90;;;;;;5031145;28;20067;-70
2022/09/14 01:24:33;;;;;;;7.07;2.20;;;23.20;99.90;;;;;;5030804;28;20049;-70
2022/09/14 01:27:40;;;;;;;4.50;2.28;;;23.20;99.90;;;;;;5030694;28;20063;-71
2022/09/14 01:30:09;;;;;;;7.93;2.28;;;23.30;99.90;;;;;;5025165;28;20099;-70
2022/09/14 01:32:52;;;;;;;4.20;1.80;;;23.30;99.90;;;;;;5031173;28;20458;-71
2022/09/14 01:35:18;;;;;;;5.93;2.22;;;23.30;99.90;;;;;;5031004;28;20481;-71
2022/09/14 01:38:06;;;;;;;5.90;2.30;;;23.20;99.90;;;;;;5030750;28;20502;-71
2022/09/14 01:40:48;;;;;;;6.57;2.40;;;23.20;99.90;;;;;;5031067;28;20060;-71
2022/09/14 01:43:29;;;;;;;5.95;2.10;;;23.30;99.90;;;;;;5030983;28;20045;-71
2022/09/14 01:46:05;;;;;;;7.22;2.15;;;23.20;99.90;;;;;;5030941;28;20045;-71
2022/09/14 01:48:41;;;;;;;6.00;2.15;;;23.10;99.90;;;;;;5030793;28;20025;-71
2022/09/14 01:51:11;;;;;;;;;;;23.10;99.90;;;;;;5030821;28;20496;-71
2022/09/14 01:53:45;;;;;;;6.95;2.25;;;23.00;99.90;;;;;;5029869;28;19920;-71
2022/09/14 01:56:34;;;;;;;5.45;2.35;;;23.00;99.90;;;;;;5014575;28;20037;-71
2022/09/14 01:59:15;;;;;;;4.90;2.30;;;23.00;99.90;;;;;;5052312;28;20322;-71
2022/09/14 02:02:04;;;;;;;4.97;2.15;;;23.00;99.90;;;;;;5052623;28;20543;-71
2022/09/14 02:05:00;;;;;;;6.38;2.10;;;23.00;99.90;;;;;;5051809;28;20144;-71
2022/09/14 02:07:26;;;;;;;5.63;2.10;;;22.90;99.90;;;;;;5052689;28;20017;-70
2022/09/14 02:09:53;;;;;;;7.38;2.28;;;22.90;99.90;;;;;;5050532;28;20110;-71
2022/09/14 02:12:21;;;;;;;6.35;2.20;;;22.90;99.90;;;;;;5052125;28;20028;-70
2022/09/14 02:14:49;;;;;;;8.43;2.53;;;22.90;99.90;;;;;;5050672;28;20159;-71
2022/09/14 02:17:15;;;;;;;5.40;1.88;;;22.90;99.90;;;;;;5052152;28;20028;-71
2022/09/14 02:19:56;;;;;;;5.10;2.00;;;22.80;99.90;;;;;;5051948;28;20021;-71
2022/09/14 02:22:25;;;;;;;5.35;2.03;;;22.80;99.90;;;;;;5052346;28;20414;-71
2022/09/14 02:24:51;;;;;;;4.40;1.80;;;22.80;99.90;;;;;;5052098;28;20395;-71
2022/09/14 02:27:17;;;;;;;4.95;1.80;;;22.80;99.90;;;;;;5052323;28;20017;-71
2022/09/14 02:29:43;;;;;;;5.40;2.03;;;22.80;99.90;;;;;;5051767;28;20131;-71
2022/09/14 02:32:17;;;;;;;4.45;1.80;;;22.80;99.90;;;;;;5051826;28;20120;-71
2022/09/14 02:35:08;;;;;;;6.32;1.83;;;22.90;99.90;;;;;;5052151;28;20021;-71
2022/09/14 02:38:00;;;;;;;7.45;1.88;;;23.00;99.90;;;;;;5052197;28;20454;-71
2022/09/14 02:40:42;;;;;;;7.32;1.55;;;22.90;99.90;;;;;;5052158;28;20032;-71
2022/09/14 02:43:41;;;;;;;7.15;1.83;;;22.90;99.90;;;;;;5051972;28;20092;-71
2022/09/14 02:46:18;;;;;;;6.35;1.90;;;22.90;99.90;;;;;;5051847;28;20033;-71
2022/09/14 02:49:20;;;;;;;6.95;1.55;;;22.90;99.90;;;;;;5051632;28;20025;-71
2022/09/14 02:52:03;;;;;;;4.95;1.60;;;23.00;99.90;;;;;;5040014;28;20497;-70
2022/09/14 02:54:45;;;;;;;6.03;1.92;;;23.00;99.90;;;;;;5051450;28;20067;-70
2022/09/14 02:57:11;;;;;;;3.97;1.70;;;22.90;99.90;;;;;;5051609;28;20025;-70
2022/09/14 02:59:37;;;;;;;6.35;1.63;;;23.00;99.90;;;;;;5051503;28;20074;-70
2022/09/14 03:02:03;;;;;;;5.78;1.67;;;23.00;99.90;;;;;;5051485;28;20568;-70
2022/09/14 03:04:29;;;;;;;5.70;1.63;;;23.00;99.90;;;;;;5050802;28;20036;-70
2022/09/14 03:06:55;;;;;;;6.15;1.65;;;23.10;99.90;;;;;;5051388;28;20020;-70
2022/09/14 03:09:21;;;;;;;3.92;1.35;;;23.10;99.90;;;;;;5051873;28;20097;-71
2022/09/14 03:11:47;;;;;;;6.03;1.90;;;23.10;99.90;;;;;;5051653;28;20060;-70
2022/09/14 03:14:13;;;;;;;6.65;1.85;;;23.10;99.90;;;;;;5051449;28;20025;-70
2022/09/14 03:16:39;;;;;;;4.13;1.35;;;23.10;99.90;;;;;;5051846;28;20028;-70
2022/09/14 03:19:05;;;;;;;8.82;1.98;;;23.10;99.90;;;;;;5051710;28;20033;-70
2022/09/14 03:21:32;;;;;;;4.22;1.35;;;23.10;99.90;;;;;;5051975;28;20346;-70
2022/09/14 03:23:58;;;;;;;;;;;23.00;99.90;;;;;;5050809;28;20475;-70
2022/09/14 03:26:27;;;;;;;4.50;1.70;;;23.00;99.90;;;;;;5051670;28;20422;-70
2022/09/14 03:28:57;;;;;;;6.95;1.67;;;23.10;99.90;;;;;;5050145;28;20120;-70
2022/09/14 03:31:25;;;;;;;5.07;1.42;;;23.10;99.90;;;;;;5051693;28;20176;-70
2022/09/14 03:33:56;;;;;;;6.60;1.63;;;23.10;99.90;;;;;;5051995;28;20024;-70
2022/09/14 03:36:24;;;;;;;7.78;1.73;;;23.10;99.90;;;;;;5051503;28;20013;-70
2022/09/14 03:38:53;;;;;;;7.30;1.58;;;23.10;99.90;;;;;;5051166;28;20067;-70
2022/09/14 03:41:20;;;;;;;7.60;1.92;;;23.10;99.90;;;;;;5051707;28;20025;-71
2022/09/14 03:43:46;;;;;;;8.43;1.65;;;23.00;99.90;;;;;;5051950;28;20465;-71
2022/09/14 03:46:15;;;;;;;8.30;2.00;;;23.00;99.90;;;;;;5051460;28;20036;-70
2022/09/14 03:48:41;;;;;;;8.32;2.05;;;23.00;99.90;;;;;;5051696;28;20025;-70
2022/09/14 03:51:10;;;;;;;5.70;1.60;;;23.10;99.90;;;;;;5051562;28;20029;-70
2022/09/14 03:53:37;;;;;;;8.30;1.83;;;23.10;99.90;;;;;;5051466;28;20025;-70
2022/09/14 03:56:11;;;;;;;6.00;1.55;;;23.10;99.90;;;;;;5033518;28;20465;-71
2022/09/14 03:58:37;;;;;;;6.47;1.70;;;23.10;99.90;;;;;;5049919;28;20385;-70
2022/09/14 04:01:08;;;;;;;6.75;1.75;;;23.10;99.90;;;;;;5051328;28;20166;-71
2022/09/14 04:03:35;;;;;;;6.55;1.80;;;23.10;99.90;;;;;;5051474;28;20481;-70
2022/09/14 04:06:05;;;;;;;7.47;2.10;;;23.00;99.90;;;;;;5051381;28;20048;-70
2022/09/14 04:08:37;;;;;;;6.65;1.75;;;22.90;99.90;;;;;;5051342;28;20032;-70
2022/09/14 04:11:20;;;;;;;6.07;1.80;;;22.90;99.90;;;;;;5051115;28;20025;-70
2022/09/14 04:13:47;;;;;;;7.45;1.80;;;22.90;99.90;;;;;;5051573;28;20112;-70
2022/09/14 04:16:14;;;;;;;5.60;1.98;;;22.90;99.90;;;;;;5052821;28;20079;-70
2022/09/14 04:18:40;;;;;;;7.05;1.88;;;22.80;99.90;;;;;;5056174;28;20029;-70
2022/09/14 04:21:12;;;;;;;7.68;1.90;;;22.80;99.90;;;;;;5056207;28;20021;-70
2022/09/14 04:23:38;;;;;;;6.90;1.85;;;22.80;99.90;;;;;;5056404;28;20033;-70
2022/09/14 04:26:11;;;;;;;7.72;1.77;;;22.70;99.90;;;;;;5056079;28;20035;-70
2022/09/14 04:28:37;;;;;;;16.60;3.30;;;22.70;99.90;;;;;;5056956;28;20515;-70
2022/09/14 04:31:03;;;;;;;15.05;3.42;;;22.80;99.90;;;;;;5056054;28;20128;-71
2022/09/14 04:33:31;;;;;;;9.80;2.28;;;22.70;99.90;;;;;;5056091;28;20028;-70
2022/09/14 04:36:09;;;;;;;7.03;1.80;;;22.70;99.90;;;;;;5056457;28;20025;-71
2022/09/14 04:38:37;;;;;;;6.22;1.77;;;22.80;99.90;;;;;;5056273;28;20039;-70
2022/09/14 04:41:06;;;;;;;6.68;2.10;;;22.80;99.90;;;;;;5056350;28;20021;-72
2022/09/14 04:43:32;;;;;;;8.77;2.35;;;22.90;99.90;;;;;;5054969;28;20071;-71
2022/09/14 04:46:06;;;;;;;9.18;1.92;;;22.90;99.90;;;;;;5055756;28;20167;-70
2022/09/14 04:48:34;;;;;;;6.53;1.80;;;22.90;99.90;;;;;;5056266;28;20100;-71
2022/09/14 04:51:12;;;;;;;8.02;1.88;;;22.90;99.90;;;;;;5055708;28;20074;-70
2022/09/14 04:53:39;;;;;;;8.15;2.20;;;22.90;99.90;;;;;;5056014;28;20071;-70
2022/09/14 04:56:08;;;;;;;5.38;1.92;;;22.90;99.90;;;;;;5054708;28;20036;-71
2022/09/14 04:58:38;;;;;;;6.07;1.95;;;22.90;99.90;;;;;;5055977;28;20462;-71
2022/09/14 05:01:26;;;;;;;6.88;1.90;;;22.80;99.90;;;;;;5055537;28;20025;-71
2022/09/14 05:03:53;;;;;;;7.78;1.75;;;22.70;99.90;;;;;;5055581;28;20191;-71
2022/09/14 05:06:30;;;;;;;8.63;2.42;;;22.60;99.90;;;;;;5055381;28;20163;-71
2022/09/14 05:08:58;;;;;;;9.40;2.03;;;22.60;99.90;;;;;;5055435;28;20107;-71
2022/09/14 05:11:27;;;;;;;8.57;2.17;;;22.60;99.90;;;;;;5055118;28;20029;-71
2022/09/14 05:13:55;;;;;;;9.95;2.40;;;22.70;99.90;;;;;;5054948;28;20481;-70
2022/09/14 05:16:27;;;;;;;10.38;2.22;;;22.60;99.90;;;;;;5054331;28;20017;-70
2022/09/14 05:18:55;;;;;;;5.97;2.13;;;22.60;99.90;;;;;;5053159;28;20033;-71
2022/09/14 05:21:23;;;;;;;8.65;2.20;;;22.60;99.90;;;;;;5054243;28;20127;-70
2022/09/14 05:23:57;;;;;;;8.50;2.20;;;22.60;99.90;;;;;;5054961;28;20032;-70
2022/09/14 05:26:25;;;;;;;7.60;2.13;;;22.70;99.90;;;;;;5054829;28;20112;-71
2022/09/14 05:28:53;;;;;;;9.55;2.42;;;22.60;99.90;;;;;;5053624;28;20025;-70
2022/09/14 05:31:20;;;;;;;8.80;2.70;;;22.60;99.90;;;;;;5052322;28;20049;-70
2022/09/14 05:33:47;;;;;;;8.13;2.20;;;22.60;99.90;;;;;;5053884;28;20078;-70
2022/09/14 05:36:13;;;;;;;;;;;22.60;99.90;;;;;;5054114;28;20017;-70
2022/09/14 05:38:40;;;;;;;7.90;2.00;;;22.70;99.90;;;;;;5053370;28;20194;-70
2022/09/14 05:41:08;;;;;;;8.57;2.00;;;23.30;99.90;;;;;;5054060;28;20457;-70
2022/09/14 05:43:34;;;;;;;5.88;1.83;;;24.30;99.90;;;;;;5054035;28;20477;-70
2022/09/14 05:46:02;;;;;;;6.25;1.92;;;25.40;99.90;;;;;;5053766;28;20041;-70
2022/09/14 05:48:32;;;;;;;7.78;1.90;;;26.70;99.90;;;;;;5053214;28;20017;-71
2022/09/14 05:51:03;;;;;;;5.95;1.75;;;27.80;99.90;;;;;;5051905;28;20473;-71
2022/09/14 05:53:29;;;;;;;7.57;1.60;;;28.40;99.90;;;;;;5053861;28;20021;-71
2022/09/14 05:56:03;;;;;;;;;;;29.40;99.90;;;;;;5052978;28;20448;-72
2022/09/14 05:58:29;;;;;;;7.05;1.60;;;30.80;99.90;;;;;;5051738;28;19908;-72
2022/09/14 06:00:55;;;;;;;9.18;1.50;;;31.80;99.90;;;;;;5052653;28;20078;-71
2022/09/14 06:03:21;;;;;;;6.78;1.90;;;31.20;99.90;;;;;;5051970;28;20031;-72
2022/09/14 06:05:47;;;;;;;6.70;1.60;;;30.50;99.90;;;;;;5053131;28;20037;-72
2022/09/14 06:08:13;;;;;;;8.85;2.03;;;31.10;99.90;;;;;;5053185;28;20032;-71
2022/09/14 06:10:39;;;;;;;7.45;1.55;;;31.40;99.90;;;;;;5053532;28;20037;-72
2022/09/14 06:13:06;;;;;;;9.98;1.70;;;31.50;99.90;;;;;;5052961;28;20070;-73
2022/09/14 06:15:33;;;;;;;6.03;1.70;;;31.20;99.90;;;;;;5053676;28;20029;-73
2022/09/14 06:18:00;;;;;;;6.68;1.80;;;31.00;99.90;;;;;;5053206;28;20330;-73
2022/09/14 06:20:27;;;;;;;7.55;2.08;;;31.00;99.90;;;;;;5054140;28;20025;-72
2022/09/14 06:22:53;;;;;;;8.93;1.83;;;31.20;99.90;;;;;;5053225;28;20025;-72
2022/09/14 06:25:19;;;;;;;9.75;1.88;;;31.70;99.90;;;;;;5053540;28;20115;-72
2022/09/14 06:27:44;;;;;;;;;;;32.50;99.90;;;;;;5053222;28;20025;-71
2022/09/14 06:30:11;;;;;;;5.05;1.40;;;33.40;99.90;;;;;;5053041;28;19909;-71
2022/09/14 06:32:38;;;;;;;6.72;1.80;;;34.70;99.90;;;;;;5051905;28;20082;-72
2022/09/14 06:35:05;;;;;;;7.10;1.30;;;35.70;99.90;;;;;;5053220;28;20101;-72
2022/09/14 06:37:31;;;;;;;7.00;1.25;;;36.30;99.90;;;;;;5053114;28;20024;-72
2022/09/14 06:39:57;;;;;;;8.50;1.48;;;37.80;99.90;;;;;;5053324;28;20052;-72
2022/09/14 06:42:23;;;;;;;6.28;1.48;;;39.10;99.90;;;;;;5053753;28;20036;-72
2022/09/14 06:44:49;;;;;;;9.52;1.63;;;39.40;99.90;;;;;;5053389;28;20071;-73
2022/09/14 06:47:15;;;;;;;6.85;1.35;;;39.60;99.90;;;;;;5053115;28;20021;-72
2022/09/14 06:49:41;;;;;;;9.32;1.73;;;39.30;99.90;;;;;;5053301;28;20075;-71
2022/09/14 06:52:08;;;;;;;3.90;1.20;;;39.00;99.90;;;;;;5052958;28;20154;-72
2022/09/14 06:54:34;;;;;;;2.85;0.90;;;37.50;99.90;;;;;;5053572;28;20057;-72
2022/09/14 06:57:00;;;;;;;4.15;1.00;;;36.40;99.90;;;;;;5053217;28;20025;-71
2022/09/14 06:59:26;;;;;;;10.38;1.67;;;35.60;99.90;;;;;;5053126;28;20147;-73
2022/09/14 07:01:52;;;;;;;5.68;2.10;;;34.70;99.90;;;;;;5052943;28;20025;-72
2022/09/14 07:04:18;;;;;;;9.52;2.47;;;34.20;99.90;;;;;;5053175;28;20127;-72
2022/09/14 07:06:47;;;;;;;8.30;1.90;;;33.60;99.90;;;;;;5052936;28;20039;-73
2022/09/14 07:09:13;;;;;;;7.45;1.70;;;32.80;99.90;;;;;;5052562;28;20118;-72
2022/09/14 07:11:40;;;;;;;6.65;1.70;;;32.40;99.90;;;;;;5051392;28;20041;-72
2022/09/14 07:14:07;;;;;;;8.10;1.50;;;31.90;99.90;;;;;;5053181;28;20207;-72
2022/09/14 07:16:35;;;;;;;8.98;1.90;;;32.20;99.90;;;;;;5051263;28;20029;-72
2022/09/14 07:19:04;;;;;;;4.57;1.63;;;32.80;99.90;;;;;;5052687;28;20090;-72
2022/09/14 07:21:31;;;;;;;6.22;1.55;;;33.20;99.90;;;;;;5052354;28;20017;-72
2022/09/14 07:23:57;;;;;;;7.32;1.60;;;33.30;99.90;;;;;;5052431;28;20029;-72
2022/09/14 07:26:32;;;;;;;6.57;1.60;;;32.90;99.90;;;;;;5052390;28;20033;-72
2022/09/14 07:29:02;;;;;;;6.53;1.43;;;32.40;99.90;;;;;;5052152;28;20029;-72
2022/09/14 07:31:29;;;;;;;9.93;1.92;;;32.30;99.90;;;;;;5052344;28;20337;-73
2022/09/14 07:33:58;;;;;;;7.05;1.80;;;32.00;99.90;;;;;;5053108;28;20098;-71
2022/09/14 07:36:26;;;;;;;6.55;2.05;;;31.60;99.90;;;;;;5051963;28;20029;-71
2022/09/14 07:38:52;;;;;;;9.52;2.10;;;31.40;99.90;;;;;;5052429;28;20481;-71
2022/09/14 07:41:23;;;;;;;7.07;1.70;;;31.60;99.90;;;;;;5052258;28;20025;-72
2022/09/14 07:43:53;;;;;;;4.35;1.10;;;31.70;99.90;;;;;;5052500;28;20024;-71
2022/09/14 07:46:20;;;;;;;4.80;1.17;;;31.30;99.90;;;;;;5052307;28;20047;-71
2022/09/14 07:48:47;;;;;;;3.75;1.30;;;31.20;99.90;;;;;;5052024;28;20052;-71
2022/09/14 07:51:14;;;;;;;8.23;1.45;;;31.00;99.90;;;;;;5053536;28;20037;-71
2022/09/14 07:53:42;;;;;;;5.25;1.50;;;30.90;99.90;;;;;;5059304;28;20100;-72
2022/09/14 07:56:09;;;;;;;7.28;1.38;;;31.10;99.90;;;;;;5058152;28;20024;-73
2022/09/14 07:58:36;;;;;;;4.78;1.55;;;31.00;99.90;;;;;;5058473;28;20108;-71
2022/09/14 08:01:03;;;;;;;;;;;31.20;99.90;;;;;;5058983;28;20032;-72
2022/09/14 08:03:30;;;;;;;8.30;1.35;;;31.40;99.90;;;;;;5058404;28;19937;-72
2022/09/14 08:06:05;;;;;;;3.15;1.00;;;31.30;99.90;;;;;;5058491;28;20039;-72
2022/09/14 08:08:34;;;;;;;5.70;1.20;;;31.60;99.90;;;;;;5057151;28;20049;-71
2022/09/14 08:11:11;;;;;;;6.07;1.90;;;31.60;99.90;;;;;;5058560;28;20087;-71
2022/09/14 08:13:40;;;;;;;5.35;1.27;;;31.50;99.90;;;;;;5057606;28;20016;-72
2022/09/14 08:16:08;;;;;;;6.43;1.10;;;31.60;99.90;;;;;;5057309;28;20450;-71
2022/09/14 08:18:36;;;;;;;5.95;1.90;;;31.70;99.90;;;;;;5058494;28;20036;-71
2022/09/14 08:21:10;;;;;;;3.72;1.35;;;31.90;99.90;;;;;;5058938;28;20017;-71
2022/09/14 08:23:36;;;;;;;4.28;1.33;;;32.40;99.90;;;;;;5057275;28;20028;-71
2022/09/14 08:26:10;;;;;;;3.17;1.20;;;32.60;99.90;;;;;;5056816;28;20465;-71
2022/09/14 08:28:37;;;;;;;7.32;1.65;;;32.60;99.90;;;;;;5058515;28;20120;-70
2022/09/14 08:31:08;;;;;;;5.75;1.10;;;32.60;99.90;;;;;;5058515;28;20508;-70
2022/09/14 08:33:37;;;;;;;4.50;1.00;;;32.70;99.90;;;;;;5057601;28;20104;-71
2022/09/14 08:36:07;;;;;;;3.10;1.00;;;33.00;99.90;;;;;;5041265;28;20075;-72
2022/09/14 08:38:34;;;;;;;4.95;1.13;;;33.00;99.90;;;;;;5058867;28;20025;-72
2022/09/14 08:41:22;;;;;;;4.25;0.88;;;32.70;99.90;;;;;;5058801;28;20033;-71
2022/09/14 08:43:49;;;;;;;5.35;1.20;;;32.70;99.90;;;;;;5059344;28;20021;-72
2022/09/14 08:46:30;;;;;;;5.95;1.00;;;32.40;99.90;;;;;;5056830;28;20539;-72
2022/09/14 08:48:58;;;;;;;4.18;1.10;;;32.10;99.90;;;;;;5058091;28;20024;-71
2022/09/14 08:51:25;;;;;;;4.13;0.90;;;32.20;99.90;;;;;;5057872;28;20111;-72
2022/09/14 08:53:55;;;;;;;3.38;0.90;;;32.50;99.90;;;;;;5056828;28;20024;-72
2022/09/14 08:56:30;;;;;;;3.03;1.02;;;32.70;99.90;;;;;;5057730;28;20024;-72
2022/09/14 08:59:24;;;;;;;5.78;1.17;;;33.00;99.90;;;;;;5057986;28;20449;-72
2022/09/14 09:01:53;;;;;;;7.85;1.58;;;32.90;99.90;;;;;;5058089;28;20115;-72
2022/09/14 09:04:23;;;;;;;3.58;1.00;;;32.50;99.90;;;;;;5053978;28;20071;-72
2022/09/14 09:07:09;;;;;;;5.72;1.00;;;31.90;99.90;;;;;;5054694;28;20041;-72
2022/09/14 09:09:39;;;;;;;10.00;1.58;;;31.70;99.90;;;;;;5054838;28;20163;-71
2022/09/14 09:12:10;;;;;;;6.25;1.02;;;31.70;99.90;;;;;;5054846;28;20025;-71
2022/09/14 09:14:42;;;;;;;3.10;1.00;;;31.50;99.90;;;;;;5054159;28;20060;-72
2022/09/14 09:17:23;;;;;;;4.10;1.05;;;31.30;99.90;;;;;;5054512;28;20021;-71
2022/09/14 09:19:55;;;;;;;7.35;1.60;;;31.30;99.90;;;;;;5054868;28;20017;-71
2022/09/14 09:22:25;;;;;;;6.03;1.25;;;31.30;99.90;;;;;;5054414;28;20052;-71
2022/09/14 09:24:53;;;;;;;10.23;1.20;;;31.20;99.90;;;;;;5055831;28;20059;-72
2022/09/14 09:27:22;;;;;;;4.80;1.10;;;31.00;99.90;;;;;;5054726;28;20025;-71
2022/09/14 09:29:49;;;;;;;3.95;1.05;;;31.00;99.90;;;;;;5053846;28;20576;-71
2022/09/14 09:32:22;;;;;;;11.13;1.40;;;31.10;99.90;;;;;;5054366;28;20037;-70
2022/09/14 09:34:48;;;;;;;7.70;1.35;;;31.10;99.90;;;;;;5054527;28;20025;-71
2022/09/14 09:37:21;;;;;;;5.95;1.60;;;31.20;99.90;;;;;;5053960;28;20021;-71
2022/09/14 09:39:48;;;;;;;7.78;1.10;;;31.30;99.90;;;;;;5054693;28;20454;-71
2022/09/14 09:42:26;;;;;;;5.50;1.30;;;31.30;99.90;;;;;;5053691;28;20139;-71
2022/09/14 09:45:02;;;;;;;3.55;1.30;;;31.30;99.90;;;;;;5054836;28;20025;-70
2022/09/14 09:47:34;;;;;;;7.38;1.40;;;31.40;99.90;;;;;;5053334;28;20115;-71
2022/09/14 09:50:04;;;;;;;4.63;1.20;;;31.10;99.90;;;;;;5052457;28;20032;-71
2022/09/14 09:52:31;;;;;;;5.25;1.10;;;31.10;99.90;;;;;;5054411;28;20032;-71
2022/09/14 09:54:59;;;;;;;4.32;1.40;;;31.10;99.90;;;;;;5053926;28;20036;-71
2022/09/14 09:57:33;;;;;;;4.25;1.00;;;31.00;99.90;;;;;;5053955;28;20052;-70
2022/09/14 10:00:24;;;;;;;9.67;1.27;;;30.90;99.90;;;;;;5053859;28;20097;-71
2022/09/14 10:02:51;;;;;;;7.72;1.30;;;30.90;99.90;;;;;;5052957;28;20065;-71
2022/09/14 10:05:20;;;;;;;4.40;1.10;;;31.00;99.90;;;;;;5051078;28;20395;-72
2022/09/14 10:07:49;;;;;;;10.50;1.48;;;31.10;99.90;;;;;;5050875;28;20033;-71
2022/09/14 10:10:24;;;;;;;4.00;1.00;;;30.80;99.90;;;;;;5053185;28;20025;-71
2022/09/14 10:12:55;;;;;;;3.95;1.13;;;30.80;99.90;;;;;;5053680;28;20087;-71
2022/09/14 10:15:24;;;;;;;6.75;1.20;;;30.90;99.90;;;;;;5053092;28;20021;-71
2022/09/14 10:18:12;;;;;;;3.95;0.93;;;30.90;99.90;;;;;;5054333;28;20036;-71
2022/09/14 10:20:53;;;;;;;4.75;0.75;;;30.80;99.90;;;;;;5052312;28;20033;-71
2022/09/14 10:23:19;;;;;;;3.80;1.10;;;31.00;99.90;;;;;;5052286;28;20150;-71
2022/09/14 10:25:46;;;;;;;;;;;31.00;99.90;;;;;;5054858;28;20032;-71
2022/09/14 10:28:30;;;;;;;5.95;1.10;;;31.10;99.90;;;;;;5054070;28;19905;-71
2022/09/14 10:31:15;;;;;;;4.90;1.20;;;31.10;99.90;;;;;;5053815;28;20079;-71
2022/09/14 10:33:42;;;;;;;5.65;1.15;;;31.10;99.90;;;;;;5052642;28;20060;-71
2022/09/14 10:36:28;;;;;;;17.15;1.85;;;30.90;99.90;;;;;;5053782;28;20525;-71
2022/09/14 10:39:25;;;;;;;6.80;1.33;;;30.80;99.90;;;;;;5054225;28;20021;-71
2022/09/14 10:42:15;;;;;;;5.22;1.30;;;30.80;99.90;;;;;;5054308;28;20102;-71
2022/09/14 10:44:48;;;;;;;5.97;1.13;;;31.00;99.90;;;;;;5052250;28;20448;-71
2022/09/14 10:47:49;;;;;;;5.38;1.30;;;31.00;99.90;;;;;;5054121;28;20082;-70
2022/09/14 10:50:34;;;;;;;5.10;1.10;;;30.90;99.90;;;;;;5041682;28;20037;-71
2022/09/14 10:53:19;;;;;;;9.48;5.20;;;31.00;99.90;;;;;;5051498;28;20036;-71
2022/09/14 10:56:04;;;;;;;4.57;1.38;;;31.00;99.90;;;;;;5053950;28;20115;-71
2022/09/14 10:59:15;;;;;;;5.27;1.53;;;30.60;99.90;;;;;;5052275;28;20124;-71
2022/09/14 11:02:03;;;;;;;4.97;1.58;;;30.70;99.90;;;;;;5030952;28;20375;-71
2022/09/14 11:04:53;;;;;;;6.88;1.30;;;30.80;99.90;;;;;;5031373;28;20087;-72
2022/09/14 11:07:29;;;;;;;6.53;1.20;;;30.90;99.90;;;;;;5031997;28;20048;-71
2022/09/14 11:10:04;;;;;;;;;;;31.00;99.90;;;;;;5031758;28;20157;-72
2022/09/14 11:12:51;;;;;;;5.85;1.20;;;31.10;99.90;;;;;;5030786;28;20000;-71
2022/09/14 11:15:30;;;;;;;4.63;1.30;;;31.10;99.90;;;;;;5030725;28;20030;-72
2022/09/14 11:18:14;;;;;;;6.32;1.38;;;31.30;99.90;;;;;;5031422;28;20040;-71
2022/09/14 11:20:51;;;;;;;5.53;1.17;;;31.50;99.90;;;;;;5031954;28;20072;-71
2022/09/14 11:23:56;;;;;;;4.80;1.20;;;31.60;99.90;;;;;;5031399;28;20065;-71
2022/09/14 11:26:49;;;;;;;5.68;1.30;;;31.70;99.90;;;;;;5030847;28;20064;-71
2022/09/14 11:29:24;;;;;;;5.32;1.20;;;31.60;99.90;;;;;;5031337;28;20035;-71
2022/09/14 11:32:03;;;;;;;4.77;1.13;;;31.70;99.90;;;;;;5036307;28;20076;-70
2022/09/14 11:34:54;;;;;;;13.10;1.52;;;31.70;99.90;;;;;;5053384;28;20331;-70
2022/09/14 11:37:31;;;;;;;7.18;1.35;;;31.80;99.90;;;;;;5053274;28;20112;-70
2022/09/14 11:40:12;;;;;;;4.57;1.20;;;31.40;99.90;;;;;;5052928;28;20029;-71
2022/09/14 11:42:57;;;;;;;6.15;1.33;;;31.10;99.90;;;;;;5053082;28;20087;-70
2022/09/14 11:45:35;;;;;;;12.07;1.20;;;31.00;99.90;;;;;;5052398;28;20474;-70
2022/09/14 11:48:27;;;;;;;5.80;1.20;;;30.90;99.90;;;;;;5052653;28;20079;-70
2022/09/14 11:51:12;;;;;;;4.95;1.10;;;31.00;99.90;;;;;;5052421;28;20044;-70
2022/09/14 11:53:41;;;;;;;3.27;1.00;;;31.10;99.90;;;;;;5052891;28;20025;-71
2022/09/14 11:56:25;;;;;;;4.85;1.08;;;31.30;99.90;;;;;;5051968;28;20032;-70
2022/09/14 11:58:54;;;;;;;5.65;1.10;;;31.40;99.90;;;;;;5052734;28;20016;-71
2022/09/14 12:01:38;;;;;;;8.25;1.30;;;31.30;99.90;;;;;;5052161;28;20024;-70
2022/09/14 12:04:16;;;;;;;6.63;1.30;;;31.40;99.90;;;;;;5052471;28;20025;-70
2022/09/14 12:06:46;;;;;;;4.30;0.82;;;31.40;99.90;;;;;;5052023;28;20037;-70
2022/09/14 12:09:20;;;;;;;3.58;0.90;;;31.50;99.90;;;;;;5051091;28;20060;-70
2022/09/14 12:11:50;;;;;;;4.95;0.82;;;31.60;99.90;;;;;;5052584;28;20021;-70
2022/09/14 12:14:30;;;;;;;5.65;0.90;;;31.70;99.90;;;;;;5052984;28;20526;-70
2022/09/14 12:17:21;;;;;;;6.50;1.23;;;31.60;99.90;;;;;;5052581;28;20025;-71
2022/09/14 12:19:54;;;;;;;4.15;1.00;;;31.40;99.90;;;;;;5052939;28;20027;-70
2022/09/14 12:22:38;;;;;;;6.00;1.02;;;31.40;99.90;;;;;;5053157;28;20444;-71
2022/09/14 12:25:17;;;;;;;4.10;1.20;;;31.40;99.90;;;;;;5051114;28;20068;-70
2022/09/14 12:27:46;;;;;;;2.72;1.10;;;31.40;99.90;;;;;;5052826;28;20473;-71
2022/09/14 12:30:40;;;;;;;5.53;0.90;;;31.20;99.90;;;;;;5051035;28;20041;-70
2022/09/14 12:33:31;;;;;;;4.60;0.90;;;31.30;99.90;;;;;;5052552;28;20517;-71
2022/09/14 12:36:02;;;;;;;4.90;1.05;;;31.30;99.90;;;;;;5051440;28;20029;-71
2022/09/14 12:38:29;;;;;;;4.38;0.98;;;31.00;99.90;;;;;;5055924;28;20025;-70
2022/09/14 12:40:55;;;;;;;;;;;31.20;99.90;;;;;;5056625;28;20025;-70
2022/09/14 12:43:33;;;;;;;4.28;1.20;;;31.30;99.90;;;;;;5056585;28;19905;-71
2022/09/14 12:46:07;;;;;;;5.38;1.05;;;31.30;99.90;;;;;;5056740;28;20481;-70
2022/09/14 12:48:48;;;;;;;6.47;1.20;;;31.20;99.90;;;;;;5055116;28;20056;-70
2022/09/14 12:51:31;;;;;;;4.80;1.05;;;31.30;99.90;;;;;;5055706;28;20033;-70
2022/09/14 12:54:00;;;;;;;5.03;1.02;;;31.10;99.90;;;;;;5054448;28;20029;-70
2022/09/14 12:56:49;;;;;;;4.18;0.95;;;31.30;99.90;;;;;;5055566;28;20052;-71
2022/09/14 12:59:46;;;;;;;5.18;1.00;;;31.50;99.90;;;;;;5056191;28;20032;-70
2022/09/14 13:02:27;;;;;;;6.43;1.15;;;31.30;99.90;;;;;;5056081;28;20032;-71
2022/09/14 13:04:56;;;;;;;3.33;1.10;;;31.40;99.90;;;;;;5054242;28;20432;-70
2022/09/14 13:07:24;;;;;;;6.20;1.08;;;31.60;99.90;;;;;;5054063;28;20086;-70
2022/09/14 13:09:56;;;;;;;5.30;1.10;;;31.60;99.90;;;;;;5056002;28;20057;-70
2022/09/14 13:12:37;;;;;;;5.68;1.13;;;31.70;99.90;;;;;;5055556;28;20029;-70
2022/09/14 13:15:26;;;;;;;4.82;1.38;;;31.70;99.90;;;;;;5055259;28;20024;-70
2022/09/14 13:18:22;;;;;;;6.15;0.90;;;31.70;99.90;;;;;;5055821;28;20024;-70
2022/09/14 13:20:55;;;;;;;5.50;0.85;;;31.70;99.90;;;;;;5033375;28;20092;-70